Carpentersville, IL (60110)

11:59 AM CDT en Octubre 31, 2014 (GMT -0500)
Cville WWTF | Change Station
CLOSE
Current Station
Estación meteorológica personal
Location: Carpentersville, IL
Altura: 748 ft
Estaciones meteorológicas cercanas
Aviso en curso: Wind Advisory Aviso activo: Public Information Statement

Alt 748 ft 42.11 °N, 88.28 °W | Updated 14 minutes ago

Nublado
Nublado
36.9 ° F
Sensación térmica 37 ° F
N
2.0
Viento Variable Viento desde Norte
Gusts 24.0 mph

Hoy
Alta -- | Baja -- ° F
--% Posibilidad de precipitaciones
Ayer
Alta -- | Baja -- ° F
Precip. -- pul
7:24 AM 5:48 PM
Cuarto creciente, 57% visible
Presión 30.20 pul
Visibilidad 10.0 Millas
Nubes Muy nublado 3300 ft
Muy nublado 5000 ft
Nublado 7000 ft
Vientos helados 37 ° F
Punto de rocío 28 ° F
Humedad 71%
Precipitaciones 0.00 pul
Espesor de la nieve No disponible.
UV 1 de una escala de 12
Polen .60 de una escala de 12
Calidad del aire No disponible.
Flu Activity No disponible.
METAR KDPA 311652Z 34017G33KT 10SM BKN033 BKN050 OVC070 03/M03 A3018 RMK AO2 PK WND 35035/1638 RAB17E19SNB32E52 SLP227 P0000 T00281033

More Conditions Fewer Conditions

Presión 30.20 pul
Visibilidad 10.0 Millas
Nubes Muy nublado 3300 ft
Muy nublado 5000 ft
Nublado 7000 ft
Vientos helados 37 ° F
Punto de rocío 28 ° F
Humedad 71%
Precipitaciones 0.00 pul
Espesor de la nieve No disponible.
UV 1 de una escala de 12
Polen .60 de una escala de 12
Calidad del aire No disponible.
Flu Activity No disponible.
METAR KDPA 311652Z 34017G33KT 10SM BKN033 BKN050 OVC070 03/M03 A3018 RMK AO2 PK WND 35035/1638 RAB17E19SNB32E52 SLP227 P0000 T00281033

More Conditions Fewer Conditions

10-Day Weather Forecast

Almanac

Astronomía

Oct. 31, 2014 Salida Puesta
Hora real
Crepúsculo civil
Crepúsculo náutico
Crepúsculo astronómico
Luna
Horas de luz
Horas de luz
Tomorrow will be .
, % of the Moon is Illuminated

Extremos de hoy

Máximos del estado Bajos del estado

Community

WunderPhotos

Upload Photos

1,766,657 ¡fotos cargadas!

WunderBlogs® & News

Nearby

Calidad del aire

  Calidad del aire Índice AQ Contaminante
Not available.

Grosos de nieve

Estación Profundido Altura

Actividad de terremotos

Ciudad Distance Mag. Tiempo y dato
Magnitud mínima muestra es 2,5.

Temperaturas de aguas costeras

Lugar Temperatura

Estaciones meteorológicas cercanas